Time;durP1;ratioP1;P1;durP2;ratioP2;P2;SDS_P1;SDS_P2;PMS_P1;PMS_P2;Temp;Humidity;BMP_temperature;BMP_pressure;BME280_temperature;BME280_humidity;BME280_pressure;Samples;Min_cycle;Max_cycle;Signal;HPM_P1;HPM_P2
2022/07/02 00:00:40;;;;;;;13.48;10.60;;;26.70;99.90;;;;;;4979366;28;20513;-48
2022/07/02 00:03:07;;;;;;;15.95;11.48;;;26.60;99.90;;;;;;4977507;28;20043;-50
2022/07/02 00:05:34;;;;;;;18.35;10.70;;;26.70;99.90;;;;;;4965130;28;20049;-48
2022/07/02 00:08:03;;;;;;;17.88;11.10;;;26.70;99.90;;;;;;4963754;28;20035;-49
2022/07/02 00:10:30;;;;;;;17.42;11.25;;;26.70;99.90;;;;;;4992986;28;20050;-51
2022/07/02 00:12:55;;;;;;;13.00;11.10;;;26.60;99.90;;;;;;4959296;28;20387;-50
2022/07/02 00:15:22;;;;;;;21.40;11.93;;;26.50;99.90;;;;;;4963681;28;20043;-50
2022/07/02 00:17:49;;;;;;;16.80;11.65;;;26.50;99.90;;;;;;4963938;28;20513;-51
2022/07/02 00:20:14;;;;;;;17.63;11.30;;;26.50;99.90;;;;;;4964789;28;20057;-50
2022/07/02 00:22:42;;;;;;;17.80;12.25;;;26.50;99.90;;;;;;4963005;28;20479;-50
2022/07/02 00:25:08;;;;;;;18.30;11.77;;;26.50;99.90;;;;;;4980897;28;20035;-48
2022/07/02 00:27:39;;;;;;;21.67;12.57;;;26.50;99.90;;;;;;4990975;28;20361;-50
2022/07/02 00:30:05;;;;;;;17.90;12.40;;;26.50;99.90;;;;;;4944432;29;20051;-50
2022/07/02 00:32:35;;;;;;;18.02;12.25;;;26.40;99.90;;;;;;4972289;28;20031;-50
2022/07/02 00:35:11;;;;;;;18.48;12.63;;;26.40;99.90;;;;;;4981010;28;20443;-49
2022/07/02 00:37:37;;;;;;;19.15;11.77;;;26.40;99.90;;;;;;4965469;28;20046;-50
2022/07/02 00:40:04;;;;;;;15.02;12.23;;;26.40;99.90;;;;;;4964362;28;20455;-49
2022/07/02 00:42:31;;;;;;;14.25;11.73;;;26.40;99.90;;;;;;5007895;28;20134;-49
2022/07/02 00:44:58;;;;;;;21.45;15.00;;;26.40;99.90;;;;;;4958120;28;20031;-50
2022/07/02 00:47:27;;;;;;;19.17;13.15;;;26.60;99.90;;;;;;4963866;28;20489;-50
2022/07/02 00:49:53;;;;;;;23.58;15.10;;;26.60;99.90;;;;;;4962991;28;20606;-51
2022/07/02 00:52:20;;;;;;;25.30;14.93;;;26.60;99.90;;;;;;4964354;28;20031;-49
2022/07/02 00:54:45;;;;;;;21.25;15.70;;;26.60;99.90;;;;;;4960692;28;20364;-50
2022/07/02 00:57:12;;;;;;;20.05;15.18;;;26.50;99.90;;;;;;4966701;28;20038;-49
2022/07/02 00:59:38;;;;;;;22.75;14.38;;;26.60;99.90;;;;;;4966389;28;20122;-49
2022/07/02 01:02:06;;;;;;;19.90;14.48;;;26.50;99.90;;;;;;4964820;28;20057;-49
2022/07/02 01:04:33;;;;;;;18.83;14.13;;;26.50;99.90;;;;;;4970338;28;20062;-49
2022/07/02 01:07:09;;;;;;;22.48;13.85;;;26.40;99.90;;;;;;4966001;28;20038;-51
2022/07/02 01:12:34;;;;;;;17.55;13.55;;;;;;;;;;4966296;28;20157;-49
2022/07/02 01:15:00;;;;;;;20.35;15.75;;;25.50;99.90;;;;;;4957418;28;20031;-50
2022/07/02 01:17:26;;;;;;;21.27;16.40;;;25.10;99.90;;;;;;4963649;28;20033;-49
2022/07/02 01:19:53;;;;;;;21.25;16.45;;;;;;;;;;4965872;28;20463;-50
2022/07/02 01:22:20;;;;;;;26.80;17.00;;;25.20;99.90;;;;;;4965739;28;20030;-49
2022/07/02 01:24:51;;;;;;;21.50;18.35;;;25.20;99.90;;;;;;4964372;28;20023;-49
2022/07/02 01:27:18;;;;;;;22.50;16.05;;;25.00;99.90;;;;;;4963983;28;20039;-50
2022/07/02 01:29:44;;;;;;;23.95;18.55;;;24.90;99.90;;;;;;4963535;28;20035;-49
2022/07/02 01:32:11;;;;;;;25.92;17.98;;;24.80;99.90;;;;;;4963999;28;20027;-50
2022/07/02 01:34:39;;;;;;;22.45;16.67;;;24.80;99.90;;;;;;4959862;28;20130;-50
2022/07/02 01:37:13;;;;;;;24.38;17.33;;;25.00;99.90;;;;;;4978630;28;20058;-50
2022/07/02 01:39:40;;;;;;;23.05;15.30;;;25.20;99.90;;;;;;4960511;28;20383;-50
2022/07/02 01:42:07;;;;;;;15.45;12.40;;;25.20;99.90;;;;;;4963675;28;20110;-50
2022/07/02 01:44:34;;;;;;;23.48;13.25;;;25.20;99.90;;;;;;4961921;28;20561;-50
2022/07/02 01:47:03;;;;;;;21.52;12.07;;;25.30;99.90;;;;;;4977757;28;20031;-51
2022/07/02 01:49:29;;;;;;;23.65;10.02;;;25.30;99.90;;;;;;4992969;28;20043;-50
2022/07/02 01:51:54;;;;;;;17.08;9.00;;;25.30;99.90;;;;;;4963678;28;20062;-50
2022/07/02 01:54:20;;;;;;;23.42;7.22;;;25.30;99.90;;;;;;4967726;28;20086;-51
2022/07/02 01:56:46;;;;;;;26.23;7.63;;;25.20;99.90;;;;;;4963127;28;20043;-50
2022/07/02 01:59:13;;;;;;;26.00;5.40;;;25.30;99.90;;;;;;4983729;28;20034;-49
2022/07/02 02:01:41;;;;;;;25.75;5.28;;;25.30;99.90;;;;;;4968950;28;20035;-51
2022/07/02 02:04:06;;;;;;;24.55;5.90;;;25.30;99.90;;;;;;4967440;28;20078;-50
2022/07/02 02:06:32;;;;;;;23.02;6.00;;;25.40;99.90;;;;;;4960757;28;20475;-50
2022/07/02 02:08:58;;;;;;;23.33;4.88;;;25.40;99.90;;;;;;4995013;28;20042;-49
2022/07/02 02:11:24;;;;;;;20.10;4.38;;;25.40;99.90;;;;;;4968156;28;20031;-49
2022/07/02 02:13:50;;;;;;;16.48;3.50;;;25.40;99.90;;;;;;4968500;28;20031;-50
2022/07/02 02:16:16;;;;;;;11.70;3.13;;;25.20;99.90;;;;;;4968642;28;20039;-49
2022/07/02 02:18:43;;;;;;;15.73;3.50;;;25.00;99.90;;;;;;4958649;28;20074;-50
2022/07/02 02:21:08;;;;;;;14.05;3.42;;;24.80;99.90;;;;;;4977323;28;20031;-50
2022/07/02 02:23:35;;;;;;;8.95;2.60;;;;;;;;;;4982790;28;20521;-51
2022/07/02 02:26:01;;;;;;;16.10;2.95;;;;;;;;;;4996016;28;20046;-51
2022/07/02 02:28:26;;;;;;;9.60;2.80;;;24.50;99.90;;;;;;4967060;28;20038;-50
2022/07/02 02:30:52;;;;;;;16.33;4.30;;;24.70;99.90;;;;;;4964917;28;20097;-51
2022/07/02 02:33:18;;;;;;;15.63;2.97;;;24.60;99.90;;;;;;4966112;28;20106;-50
2022/07/02 02:35:44;;;;;;;15.35;2.80;;;24.60;99.90;;;;;;4962288;28;20047;-49
2022/07/02 02:38:10;;;;;;;12.70;2.65;;;;;;;;;;4994923;28;20511;-49
2022/07/02 02:40:36;;;;;;;14.63;2.83;;;24.60;99.90;;;;;;4962530;28;20047;-50
2022/07/02 02:43:02;;;;;;;9.75;2.88;;;24.50;99.90;;;;;;4977929;28;20035;-50
2022/07/02 02:45:27;;;;;;;12.90;3.42;;;24.50;99.90;;;;;;4964234;28;20034;-50
2022/07/02 02:47:53;;;;;;;15.52;3.97;;;24.40;99.90;;;;;;4962340;28;20058;-49
2022/07/02 02:50:19;;;;;;;10.48;3.13;;;24.40;99.90;;;;;;4968391;28;20485;-49
2022/07/02 02:52:45;;;;;;;9.10;2.28;;;24.20;99.90;;;;;;4975145;28;20137;-50
2022/07/02 02:55:11;;;;;;;8.70;2.33;;;24.20;99.90;;;;;;4979159;28;20070;-51
2022/07/02 02:57:37;;;;;;;9.15;2.33;;;24.10;99.90;;;;;;4968509;28;20034;-50
2022/07/02 03:00:03;;;;;;;12.13;2.33;;;24.20;99.90;;;;;;4989967;28;20047;-48
2022/07/02 03:02:29;;;;;;;8.13;2.15;;;24.10;99.90;;;;;;4985830;28;20368;-50
2022/07/02 03:04:55;;;;;;;5.55;1.80;;;24.10;99.90;;;;;;4965663;28;20087;-50
2022/07/02 03:07:21;;;;;;;14.73;2.50;;;24.20;99.90;;;;;;4968337;28;20026;-49
2022/07/02 03:09:46;;;;;;;4.35;1.67;;;24.20;99.90;;;;;;4959673;28;20130;-49
2022/07/02 03:12:12;;;;;;;14.18;2.22;;;24.20;99.90;;;;;;4980347;28;20039;-48
2022/07/02 03:14:38;;;;;;;9.70;2.30;;;24.20;99.90;;;;;;4961096;28;20031;-50
2022/07/02 03:17:04;;;;;;;12.05;2.38;;;24.20;99.90;;;;;;4966346;28;20563;-50
2022/07/02 03:19:30;;;;;;;13.57;2.38;;;24.20;99.90;;;;;;4993025;28;20086;-49
2022/07/02 03:21:56;;;;;;;9.35;2.40;;;24.30;99.90;;;;;;4967758;28;20038;-49
2022/07/02 03:24:22;;;;;;;9.00;2.13;;;24.30;99.90;;;;;;4966055;28;20114;-49
2022/07/02 03:26:48;;;;;;;10.57;2.30;;;24.40;99.90;;;;;;4981429;28;20089;-48
2022/07/02 03:29:14;;;;;;;11.68;3.42;;;24.30;99.90;;;;;;4967499;28;20428;-49
2022/07/02 03:31:40;;;;;;;7.82;2.15;;;24.30;99.90;;;;;;4959345;28;20034;-48
2022/07/02 03:34:06;;;;;;;9.85;2.60;;;24.30;99.90;;;;;;4965456;28;20031;-50
2022/07/02 03:36:31;;;;;;;7.30;2.72;;;24.30;99.90;;;;;;4991557;28;20043;-49
2022/07/02 03:38:57;;;;;;;7.47;2.15;;;24.20;99.90;;;;;;4965517;28;20043;-49
2022/07/02 03:41:23;;;;;;;5.72;1.85;;;24.30;99.90;;;;;;4965941;28;20510;-50
2022/07/02 03:43:51;;;;;;;13.02;3.42;;;24.20;99.90;;;;;;4966666;28;20047;-48
2022/07/02 03:46:17;;;;;;;6.65;2.20;;;24.20;99.90;;;;;;4958882;28;20038;-49
2022/07/02 03:48:44;;;;;;;10.45;2.10;;;24.30;99.90;;;;;;4965189;28;20028;-48
2022/07/02 03:51:10;;;;;;;7.68;1.90;;;24.20;99.90;;;;;;4965924;28;20066;-49
2022/07/02 03:53:36;;;;;;;7.03;2.28;;;24.20;99.90;;;;;;4965452;28;20042;-50
2022/07/02 03:56:02;;;;;;;7.30;2.25;;;24.20;99.90;;;;;;4959740;28;20027;-50
2022/07/02 03:58:30;;;;;;;3.90;1.65;;;24.20;99.90;;;;;;4967826;28;20053;-49
2022/07/02 04:00:56;;;;;;;5.53;1.60;;;24.20;99.90;;;;;;4967334;28;20093;-48
2022/07/02 04:03:22;;;;;;;8.30;2.00;;;24.20;99.90;;;;;;4992991;28;20134;-50
2022/07/02 04:05:48;;;;;;;9.18;1.67;;;24.20;99.90;;;;;;4973541;28;20464;-50
2022/07/02 04:08:14;;;;;;;7.30;1.95;;;24.30;99.90;;;;;;4974817;28;20054;-48
2022/07/02 04:10:39;;;;;;;10.55;2.67;;;24.30;99.90;;;;;;4963201;28;20479;-50
2022/07/02 04:13:05;;;;;;;12.40;1.95;;;24.30;99.90;;;;;;4964382;28;20031;-51
2022/07/02 04:15:31;;;;;;;6.05;1.58;;;24.40;99.90;;;;;;4960437;28;20043;-48
2022/07/02 04:17:56;;;;;;;3.50;1.83;;;24.40;99.90;;;;;;4965353;28;20035;-50
2022/07/02 04:20:22;;;;;;;9.93;2.22;;;24.40;99.90;;;;;;4966749;28;20678;-49
2022/07/02 04:22:48;;;;;;;5.35;1.60;;;24.40;99.90;;;;;;4964555;28;20039;-49
2022/07/02 04:25:14;;;;;;;15.23;2.10;;;24.50;99.90;;;;;;4959346;28;20035;-49
2022/07/02 04:27:39;;;;;;;15.45;2.28;;;24.60;99.90;;;;;;4963181;28;20496;-50
2022/07/02 04:30:06;;;;;;;9.98;1.92;;;24.70;99.90;;;;;;4976465;28;20039;-50
2022/07/02 04:32:32;;;;;;;8.30;1.90;;;24.80;99.90;;;;;;4976912;28;20177;-49
2022/07/02 04:34:57;;;;;;;4.78;1.73;;;24.70;99.90;;;;;;4963785;28;20118;-48
2022/07/02 04:37:23;;;;;;;10.57;1.90;;;24.70;99.90;;;;;;4961978;28;20043;-49
2022/07/02 04:39:49;;;;;;;6.35;2.20;;;24.80;99.90;;;;;;4963603;28;20682;-48
2022/07/02 04:42:15;;;;;;;6.07;2.20;;;24.80;99.90;;;;;;4963914;28;20026;-50
2022/07/02 04:44:40;;;;;;;8.75;1.92;;;24.90;99.90;;;;;;4975118;28;20042;-49
2022/07/02 04:47:06;;;;;;;6.30;1.88;;;24.90;99.90;;;;;;4964447;28;20058;-49
2022/07/02 04:49:32;;;;;;;11.27;2.33;;;24.90;99.90;;;;;;4990991;28;20398;-50
2022/07/02 04:51:59;;;;;;;14.63;3.03;;;24.80;99.90;;;;;;4961291;28;20031;-50
2022/07/02 04:54:26;;;;;;;7.07;2.65;;;24.70;99.90;;;;;;4965495;28;20069;-50
2022/07/02 04:56:51;;;;;;;12.48;3.20;;;24.60;99.90;;;;;;4962284;28;20058;-51
2022/07/02 04:59:17;;;;;;;24.95;6.82;;;24.40;99.90;;;;;;4957748;28;20031;-50
2022/07/02 05:01:43;;;;;;;18.38;5.10;;;24.20;99.90;;;;;;4977261;28;20101;-50
2022/07/02 05:04:09;;;;;;;16.73;3.88;;;23.90;99.90;;;;;;4967375;28;20431;-51
2022/07/02 05:06:35;;;;;;;9.10;3.00;;;23.80;99.90;;;;;;4966562;28;20050;-50
2022/07/02 05:09:02;;;;;;;10.32;3.60;;;23.80;99.90;;;;;;4964265;28;20031;-50
2022/07/02 05:11:27;;;;;;;8.20;2.60;;;23.80;99.90;;;;;;4963737;28;20031;-51
2022/07/02 05:13:53;;;;;;;7.15;3.60;;;23.80;99.90;;;;;;4962985;28;20105;-50
2022/07/02 05:16:19;;;;;;;7.72;3.33;;;23.80;99.90;;;;;;4993051;28;20109;-50
2022/07/02 05:18:45;;;;;;;10.60;3.95;;;23.80;99.90;;;;;;4941964;28;20043;-50
2022/07/02 05:21:11;;;;;;;11.45;3.63;;;23.80;99.90;;;;;;4967493;28;20482;-50
2022/07/02 05:23:37;;;;;;;8.95;3.03;;;23.60;99.90;;;;;;4987445;28;20394;-50
2022/07/02 05:26:03;;;;;;;12.10;3.42;;;23.50;99.90;;;;;;4968335;28;20030;-49
2022/07/02 05:28:29;;;;;;;12.60;4.35;;;23.40;99.90;;;;;;4967960;28;20031;-50
2022/07/02 05:30:55;;;;;;;11.20;3.45;;;23.60;99.90;;;;;;4973288;28;20034;-50
2022/07/02 05:33:20;;;;;;;11.80;4.30;;;23.80;99.90;;;;;;4967451;28;20102;-50
2022/07/02 05:35:47;;;;;;;9.07;3.97;;;24.00;99.90;;;;;;4971985;28;20043;-50
2022/07/02 05:38:12;;;;;;;7.85;3.85;;;24.10;99.90;;;;;;4972387;28;20031;-51
2022/07/02 05:40:38;;;;;;;8.07;3.72;;;24.10;99.90;;;;;;4972383;28;20061;-50
2022/07/02 05:43:04;;;;;;;8.30;4.40;;;24.00;99.90;;;;;;4985910;28;20046;-49
2022/07/02 05:45:30;;;;;;;10.25;3.53;;;23.90;99.90;;;;;;4972784;28;20033;-50
2022/07/02 05:47:56;;;;;;;5.22;3.00;;;23.70;99.90;;;;;;4972330;28;20022;-50
2022/07/02 05:50:22;;;;;;;7.97;2.72;;;23.80;99.90;;;;;;4971517;28;20027;-49
2022/07/02 05:52:48;;;;;;;11.00;3.30;;;23.80;99.90;;;;;;4972815;28;20061;-50
2022/07/02 05:55:14;;;;;;;9.07;2.95;;;23.80;99.90;;;;;;4972295;28;20058;-50
2022/07/02 05:57:40;;;;;;;6.75;2.45;;;23.90;99.90;;;;;;4965915;28;20042;-51
2022/07/02 06:00:08;;;;;;;9.05;2.70;;;24.10;99.90;;;;;;4965403;28;20499;-50
2022/07/02 06:02:34;;;;;;;7.95;2.25;;;24.10;99.90;;;;;;4965933;28;20585;-50
2022/07/02 06:07:46;;;;;;;10.65;2.70;;;24.00;99.90;;;;;;5010104;28;20034;-50
2022/07/02 06:10:18;;;;;;;6.60;3.80;;;23.90;99.90;;;;;;5011045;28;20117;-50
2022/07/02 06:12:51;;;;;;;9.70;4.50;;;23.90;99.90;;;;;;5010502;28;20596;-50
2022/07/02 06:15:17;;;;;;;10.60;4.78;;;23.80;99.90;;;;;;4977428;28;20046;-51
2022/07/02 06:17:44;;;;;;;9.43;5.03;;;23.90;99.90;;;;;;5010320;28;20069;-50
2022/07/02 06:20:13;;;;;;;8.98;5.10;;;23.80;99.90;;;;;;5010744;28;20066;-50
2022/07/02 06:22:39;;;;;;;12.50;5.80;;;23.70;99.90;;;;;;4962595;28;20063;-51
2022/07/02 06:25:07;;;;;;;14.57;6.18;;;23.70;99.90;;;;;;5010147;28;20096;-51
2022/07/02 06:27:34;;;;;;;12.40;5.90;;;23.70;99.90;;;;;;5010082;28;20034;-52
2022/07/02 06:30:04;;;;;;;12.32;5.88;;;23.70;99.90;;;;;;5009934;28;20128;-51
2022/07/02 06:32:30;;;;;;;9.98;5.82;;;23.70;99.90;;;;;;5005929;28;20095;-50
2022/07/02 06:34:56;;;;;;;12.80;6.22;;;23.70;99.90;;;;;;5011562;28;20060;-49
2022/07/02 06:37:22;;;;;;;10.80;5.25;;;23.70;99.90;;;;;;5013334;28;20046;-50
2022/07/02 06:39:49;;;;;;;11.77;5.43;;;23.60;99.90;;;;;;5012853;28;20057;-49
2022/07/02 06:42:28;;;;;;;9.13;4.75;;;23.60;99.90;;;;;;5009976;28;20390;-50
2022/07/02 06:44:55;;;;;;;8.73;5.00;;;;;;;;;;4960802;28;20396;-50
2022/07/02 06:47:21;;;;;;;7.95;4.60;;;;;;;;;;4970974;28;20031;-49
2022/07/02 06:49:48;;;;;;;8.27;4.78;;;23.70;99.90;;;;;;4965062;28;20062;-49
2022/07/02 06:52:14;;;;;;;5.88;3.60;;;23.60;99.90;;;;;;4965116;28;20043;-51
2022/07/02 06:54:41;;;;;;;7.75;4.13;;;23.60;99.90;;;;;;4989821;28;20039;-50
2022/07/02 06:57:07;;;;;;;14.18;4.70;;;23.70;99.90;;;;;;4957616;28;20047;-51
2022/07/02 06:59:33;;;;;;;6.32;3.50;;;23.80;99.90;;;;;;5006296;28;20041;-51
2022/07/02 07:01:59;;;;;;;7.20;2.55;;;23.90;99.90;;;;;;5003833;28;20046;-49
2022/07/02 07:04:27;;;;;;;6.68;3.05;;;23.60;99.90;;;;;;5008182;28;20425;-50
2022/07/02 07:06:57;;;;;;;6.10;3.20;;;23.60;99.90;;;;;;4994094;28;20529;-51
2022/07/02 07:09:27;;;;;;;8.10;2.65;;;23.70;99.90;;;;;;5007034;28;20035;-50
2022/07/02 07:11:54;;;;;;;5.78;2.25;;;23.50;99.90;;;;;;5011572;28;20041;-51
2022/07/02 07:14:20;;;;;;;8.52;3.67;;;23.20;99.90;;;;;;4983898;28;20041;-52
2022/07/02 07:16:46;;;;;;;7.32;3.05;;;23.30;99.90;;;;;;5012096;28;20045;-50
2022/07/02 07:19:12;;;;;;;4.03;2.65;;;23.40;99.90;;;;;;5007236;28;20053;-50
2022/07/02 07:21:40;;;;;;;3.88;2.42;;;23.40;99.90;;;;;;5010803;28;20030;-51
2022/07/02 07:24:07;;;;;;;7.43;2.40;;;23.30;99.90;;;;;;5007542;28;20440;-50
2022/07/02 07:26:33;;;;;;;6.00;2.55;;;23.30;99.90;;;;;;5008969;28;20050;-51
2022/07/02 07:29:00;;;;;;;7.05;2.50;;;23.30;99.90;;;;;;5007933;28;20022;-49
2022/07/02 07:31:27;;;;;;;5.93;2.83;;;23.20;99.90;;;;;;4971751;28;20047;-50
2022/07/02 07:33:54;;;;;;;4.78;1.85;;;23.20;99.90;;;;;;4972171;28;20024;-50
2022/07/02 07:36:22;;;;;;;8.45;2.30;;;23.40;99.90;;;;;;4971396;28;20497;-50
2022/07/02 07:38:49;;;;;;;2.88;1.80;;;23.50;99.90;;;;;;4970616;28;20023;-51
2022/07/02 07:41:16;;;;;;;2.63;1.70;;;23.40;99.90;;;;;;4969102;28;20039;-50
2022/07/02 07:43:41;;;;;;;1.95;1.10;;;23.50;99.90;;;;;;4986566;28;20046;-50
2022/07/02 07:46:07;;;;;;;2.78;1.48;;;23.50;99.90;;;;;;4969179;28;20029;-49
2022/07/02 07:48:33;;;;;;;9.13;1.90;;;23.50;99.90;;;;;;4968673;28;20030;-50
2022/07/02 07:51:00;;;;;;;6.15;1.83;;;23.60;99.90;;;;;;4970798;28;20023;-49
2022/07/02 07:53:26;;;;;;;3.40;1.60;;;23.70;99.90;;;;;;4969275;28;20098;-51
2022/07/02 07:55:53;;;;;;;3.20;1.77;;;23.70;99.90;;;;;;4974568;28;20045;-50
2022/07/02 07:58:19;;;;;;;4.25;1.45;;;23.50;99.90;;;;;;4972799;28;20023;-49
2022/07/02 08:00:46;;;;;;;5.00;1.67;;;23.30;99.90;;;;;;4972150;28;20031;-50
2022/07/02 08:03:14;;;;;;;6.47;1.33;;;23.10;99.90;;;;;;4971577;28;20031;-50
2022/07/02 08:05:46;;;;;;;8.88;2.90;;;23.20;99.90;;;;;;4972113;28;20046;-50
2022/07/02 08:08:12;;;;;;;6.00;1.48;;;23.30;99.90;;;;;;4969030;28;20031;-49
2022/07/02 08:10:38;;;;;;;4.32;1.80;;;23.20;99.90;;;;;;4969458;28;20034;-50
2022/07/02 08:13:04;;;;;;;2.53;1.33;;;23.30;99.90;;;;;;4963788;28;20449;-50
2022/07/02 08:15:30;;;;;;;10.48;2.60;;;23.20;99.90;;;;;;4936641;28;20038;-51
2022/07/02 08:17:56;;;;;;;7.45;2.15;;;23.20;99.90;;;;;;4968461;28;20046;-50
2022/07/02 08:20:21;;;;;;;20.50;6.32;;;23.20;99.90;;;;;;4969725;28;20030;-50
2022/07/02 08:22:49;;;;;;;8.52;2.55;;;23.30;99.90;;;;;;4986435;28;20041;-51
2022/07/02 08:25:15;;;;;;;8.02;2.63;;;23.30;99.90;;;;;;4969924;28;20421;-52
2022/07/02 08:27:42;;;;;;;3.53;1.48;;;23.30;99.90;;;;;;4968768;28;20037;-50
2022/07/02 08:30:08;;;;;;;6.82;2.30;;;23.00;99.90;;;;;;4982432;28;20035;-50
2022/07/02 08:32:34;;;;;;;4.53;2.00;;;23.00;99.90;;;;;;4963869;28;20111;-49
2022/07/02 08:35:01;;;;;;;3.65;1.98;;;22.90;99.90;;;;;;4968485;28;20109;-50
2022/07/02 08:37:26;;;;;;;6.93;2.00;;;23.10;99.90;;;;;;4985880;28;20051;-49
2022/07/02 08:39:53;;;;;;;6.72;2.08;;;23.30;99.90;;;;;;4981552;28;20058;-51
2022/07/02 08:42:25;;;;;;;5.30;1.98;;;23.30;99.90;;;;;;4974853;28;20035;-51
2022/07/02 08:44:56;;;;;;;3.40;2.15;;;23.00;99.90;;;;;;4963860;28;20026;-50
2022/07/02 08:47:24;;;;;;;3.05;1.75;;;23.10;99.90;;;;;;4967680;28;20113;-50
2022/07/02 08:49:54;;;;;;;3.65;1.90;;;23.30;99.90;;;;;;4984582;28;20058;-50
2022/07/02 08:52:22;;;;;;;4.72;1.85;;;23.30;99.90;;;;;;4968087;28;20482;-51
2022/07/02 08:54:49;;;;;;;2.85;1.67;;;23.40;99.90;;;;;;4968546;28;20035;-49
2022/07/02 08:57:15;;;;;;;3.78;1.73;;;23.50;99.90;;;;;;4968633;28;20074;-47
2022/07/02 08:59:42;;;;;;;5.13;1.90;;;23.60;99.90;;;;;;4970372;28;20041;-44
2022/07/02 09:02:11;;;;;;;2.80;1.60;;;23.80;99.90;;;;;;4968057;28;20106;-46
2022/07/02 09:04:42;;;;;;;4.00;1.50;;;23.80;99.90;;;;;;4959264;28;20518;-45
2022/07/02 09:07:11;;;;;;;4.97;1.90;;;24.00;99.90;;;;;;4969233;28;20038;-46
2022/07/02 09:09:41;;;;;;;7.30;2.10;;;24.00;99.90;;;;;;4968619;28;20043;-45
2022/07/02 09:12:12;;;;;;;8.70;2.40;;;24.20;99.90;;;;;;4969087;28;20113;-45
2022/07/02 09:14:39;;;;;;;3.30;1.58;;;24.40;99.90;;;;;;4986573;28;20099;-45
2022/07/02 09:17:10;;;;;;;3.20;1.50;;;24.70;99.90;;;;;;4984320;28;20422;-46
2022/07/02 09:19:37;;;;;;;12.75;2.00;;;24.90;99.90;;;;;;4969300;28;20046;-48
2022/07/02 09:22:03;;;;;;;7.13;2.60;;;24.80;99.90;;;;;;4955710;28;20054;-45
2022/07/02 09:24:32;;;;;;;6.18;1.70;;;25.00;99.90;;;;;;4967646;28;20128;-44
2022/07/02 09:27:04;;;;;;;8.02;2.22;;;25.30;99.90;;;;;;4957891;28;20046;-44
2022/07/02 09:29:40;;;;;;;4.65;1.73;;;25.60;99.90;;;;;;4981845;28;20038;-44
2022/07/02 09:32:05;;;;;;;3.08;1.67;;;25.70;99.90;;;;;;4976638;28;20034;-45
2022/07/02 09:34:31;;;;;;;5.15;1.70;;;25.80;99.90;;;;;;4980069;28;20145;-48
2022/07/02 09:36:57;;;;;;;3.20;1.70;;;26.00;99.90;;;;;;4981439;28;20474;-46
2022/07/02 09:39:30;;;;;;;2.63;1.48;;;26.10;99.90;;;;;;4980284;28;20137;-48
2022/07/02 09:41:59;;;;;;;4.07;1.65;;;26.10;99.90;;;;;;4981281;28;20031;-44
2022/07/02 09:44:26;;;;;;;3.40;2.00;;;;;;;;;;4960000;28;20070;-46
2022/07/02 09:46:52;;;;;;;6.18;1.90;;;26.60;99.90;;;;;;4968431;28;20471;-47
2022/07/02 09:49:18;;;;;;;3.58;1.70;;;26.90;99.90;;;;;;4964973;28;20031;-46
2022/07/02 09:51:54;;;;;;;5.20;1.60;;;26.60;99.90;;;;;;4967713;28;20075;-45
2022/07/02 09:54:21;;;;;;;3.25;1.50;;;26.30;99.90;;;;;;4963712;28;20483;-46
2022/07/02 09:56:55;;;;;;;3.17;1.70;;;26.40;99.90;;;;;;4986089;28;20050;-45
2022/07/02 09:59:22;;;;;;;4.95;1.60;;;26.50;99.90;;;;;;4966708;28;20113;-47
2022/07/02 10:01:48;;;;;;;3.63;1.58;;;26.60;99.90;;;;;;4966637;28;20047;-46
2022/07/02 10:04:14;;;;;;;4.93;1.67;;;26.50;99.90;;;;;;4985369;28;20045;-46
2022/07/02 10:06:43;;;;;;;3.20;1.55;;;26.40;99.90;;;;;;4962257;28;20054;-45
2022/07/02 10:09:11;;;;;;;5.85;1.58;;;26.40;99.90;;;;;;4969877;28;20038;-46
2022/07/02 10:11:37;;;;;;;2.97;1.58;;;26.50;99.90;;;;;;4970255;28;20169;-49
2022/07/02 10:14:04;;;;;;;2.05;1.45;;;26.40;99.90;;;;;;4983308;28;20046;-52
2022/07/02 10:16:31;;;;;;;3.92;1.65;;;;;;;;;;4970454;28;20085;-50
2022/07/02 10:19:01;;;;;;;2.47;1.85;;;27.20;99.90;;;;;;4971485;28;20034;-49
2022/07/02 10:21:28;;;;;;;2.63;1.33;;;27.60;99.90;;;;;;4973590;28;20066;-51
2022/07/02 10:23:54;;;;;;;3.90;1.48;;;27.60;99.90;;;;;;4971662;28;20038;-47
2022/07/02 10:26:21;;;;;;;2.47;1.92;;;;;;;;;;4971205;28;20031;-50
2022/07/02 10:28:48;;;;;;;6.93;2.05;;;;;;;;;;4970553;28;20035;-47
2022/07/02 10:31:18;;;;;;;1.77;1.45;;;;;;;;;;4970083;28;20027;-47
2022/07/02 10:33:45;;;;;;;3.47;2.50;;;;;;;;;;4964747;28;20475;-49
2022/07/02 10:36:13;;;;;;;4.38;1.40;;;28.60;99.90;;;;;;4968191;28;20297;-51
2022/07/02 10:38:39;;;;;;;2.20;1.20;;;28.80;99.90;;;;;;4986205;28;20046;-47
2022/07/02 10:41:07;;;;;;;3.40;1.67;;;28.70;99.90;;;;;;4990134;28;20038;-45
2022/07/02 10:43:34;;;;;;;3.50;1.25;;;28.90;99.90;;;;;;4969221;28;20038;-45
2022/07/02 10:46:08;;;;;;;3.13;1.58;;;28.50;99.90;;;;;;4988096;28;20042;-45
2022/07/02 10:48:47;;;;;;;3.40;1.50;;;29.20;99.90;;;;;;5001237;28;20464;-47
2022/07/02 10:51:20;;;;;;;5.63;1.40;;;;;;;;;;4980768;28;20461;-49
2022/07/02 10:53:50;;;;;;;3.28;1.40;;;;;;;;;;4982032;28;20039;-47
2022/07/02 10:56:15;;;;;;;4.00;2.15;;;29.60;99.90;;;;;;4987876;28;20089;-46
2022/07/02 10:58:41;;;;;;;2.30;1.30;;;29.20;99.90;;;;;;5000130;28;20042;-45
2022/07/02 11:01:15;;;;;;;2.67;1.10;;;29.30;99.90;;;;;;4984822;28;20114;-46
2022/07/02 11:03:57;;;;;;;5.05;1.50;;;;;;;;;;4969780;28;20042;-46
2022/07/02 11:06:31;;;;;;;3.28;1.60;;;29.50;99.90;;;;;;4985624;28;20085;-45
2022/07/02 11:08:58;;;;;;;3.75;1.40;;;;;;;;;;4963342;28;20042;-45
2022/07/02 11:11:36;;;;;;;2.08;1.38;;;29.70;99.90;;;;;;4966434;28;20093;-45
2022/07/02 11:14:07;;;;;;;3.75;1.50;;;29.80;99.90;;;;;;4971207;28;20113;-48
2022/07/02 11:16:34;;;;;;;7.95;2.35;;;;;;;;;;4968716;28;20031;-42
2022/07/02 11:19:00;;;;;;;2.65;1.50;;;29.80;99.90;;;;;;4967558;28;20070;-45
2022/07/02 11:21:28;;;;;;;4.10;1.40;;;29.90;99.90;;;;;;4968272;28;20031;-45
2022/07/02 11:23:54;;;;;;;5.38;1.63;;;29.80;99.90;;;;;;4969666;28;20039;-47
2022/07/02 11:26:25;;;;;;;3.38;1.40;;;30.00;99.90;;;;;;4971519;28;20035;-46
2022/07/02 11:28:52;;;;;;;2.97;1.38;;;30.30;99.90;;;;;;4973101;28;20054;-44
2022/07/02 11:31:19;;;;;;;3.45;1.83;;;30.00;99.90;;;;;;4981035;28;20071;-49
2022/07/02 11:33:56;;;;;;;3.20;1.33;;;29.90;99.90;;;;;;4968419;28;20038;-49
2022/07/02 11:36:24;;;;;;;2.55;1.50;;;30.10;99.90;;;;;;4970726;28;20035;-48
2022/07/02 11:38:51;;;;;;;4.75;1.45;;;30.20;99.90;;;;;;4968574;28;20026;-47
2022/07/02 11:41:32;;;;;;;2.95;1.40;;;30.20;99.90;;;;;;4969539;28;20080;-49
2022/07/02 11:43:59;;;;;;;1.95;1.50;;;30.30;99.90;;;;;;4972071;28;20770;-46
2022/07/02 11:46:27;;;;;;;3.60;1.60;;;30.30;99.90;;;;;;4967472;28;20383;-46
2022/07/02 11:48:54;;;;;;;2.17;1.42;;;30.50;99.90;;;;;;4970915;28;20057;-46
2022/07/02 11:51:20;;;;;;;6.07;1.73;;;30.50;99.90;;;;;;4967320;28;20050;-47
2022/07/02 11:54:00;;;;;;;2.20;1.38;;;30.40;99.90;;;;;;4969230;28;20376;-48
2022/07/02 11:56:27;;;;;;;4.15;1.50;;;30.10;99.90;;;;;;4983912;28;20140;-45
2022/07/02 11:58:53;;;;;;;2.70;1.60;;;30.30;99.90;;;;;;4987078;28;20035;-45
2022/07/02 12:01:31;;;;;;;8.63;2.13;;;30.30;99.90;;;;;;4970065;28;20027;-49
2022/07/02 12:03:59;;;;;;;2.60;1.30;;;30.90;99.90;;;;;;4966639;28;20037;-46
2022/07/02 12:06:28;;;;;;;5.32;1.38;;;31.10;99.90;;;;;;4964791;28;20435;-46
2022/07/02 12:08:55;;;;;;;2.85;1.60;;;;;;;;;;4970011;28;20027;-48
2022/07/02 12:11:22;;;;;;;3.17;1.60;;;31.10;99.90;;;;;;4967413;28;20037;-45
2022/07/02 12:13:48;;;;;;;2.85;1.40;;;30.90;99.90;;;;;;4967606;28;20133;-46
2022/07/02 12:16:17;;;;;;;4.07;2.30;;;30.40;99.90;;;;;;4966935;28;20090;-45
2022/07/02 12:18:44;;;;;;;3.03;1.45;;;30.40;99.90;;;;;;4969296;28;20121;-46
2022/07/02 12:21:16;;;;;;;3.63;1.73;;;30.40;99.90;;;;;;4969489;28;20048;-46
2022/07/02 12:23:50;;;;;;;5.90;1.73;;;30.10;99.90;;;;;;4970607;28;20081;-48
2022/07/02 12:26:34;;;;;;;5.00;1.80;;;30.20;99.90;;;;;;4980864;28;20039;-49
2022/07/02 12:31:54;;;;;;;2.88;1.67;;;30.30;99.90;;;;;;4967823;28;20074;-49
2022/07/02 12:34:22;;;;;;;3.15;1.50;;;30.60;99.90;;;;;;4966835;28;20530;-49
2022/07/02 12:36:58;;;;;;;4.32;1.77;;;31.30;99.90;;;;;;4965692;28;20046;-48
2022/07/02 12:39:36;;;;;;;2.30;1.60;;;30.60;99.90;;;;;;4965910;28;20129;-48
2022/07/02 12:42:12;;;;;;;5.80;1.70;;;30.90;99.90;;;;;;4960036;28;20047;-49
2022/07/02 12:44:38;;;;;;;2.53;1.70;;;30.90;99.90;;;;;;4998790;28;20495;-44
2022/07/02 12:47:04;;;;;;;5.45;1.65;;;31.30;99.90;;;;;;4996560;28;20050;-48
2022/07/02 12:49:29;;;;;;;2.75;1.65;;;31.00;99.90;;;;;;4967991;28;20039;-47
2022/07/02 12:52:02;;;;;;;3.40;1.50;;;30.80;99.90;;;;;;4969513;28;20046;-49
2022/07/02 12:54:36;;;;;;;3.65;2.00;;;30.80;99.90;;;;;;4982220;28;20463;-47
2022/07/02 12:57:22;;;;;;;3.30;1.45;;;31.20;99.90;;;;;;4967144;28;20734;-48